createdAt,value
2016-11-20T13:37:08.298Z,84800
2016-11-20T13:37:25.504Z,88352
2016-11-20T13:37:42.705Z,96096
2016-11-20T13:37:59.904Z,106080
2016-11-20T13:38:17.098Z,114816
2016-11-20T13:38:34.300Z,120768
2016-11-20T13:38:51.497Z,123712
2016-11-20T13:39:08.707Z,126816
2016-11-20T13:39:26.087Z,130912
2016-11-20T13:39:43.330Z,133056
2016-11-20T13:40:00.550Z,133056
2016-11-20T13:40:17.905Z,131744
2016-11-20T13:40:35.092Z,129984
2016-11-20T13:40:52.319Z,128160
2016-11-20T13:41:09.519Z,127936
2016-11-20T13:41:26.744Z,127232
2016-11-20T13:41:43.936Z,126784
2016-11-20T13:42:01.126Z,127360
2016-11-20T13:42:18.317Z,127040
2016-11-20T13:42:35.504Z,126976
2016-11-20T13:42:52.763Z,128224
2016-11-20T13:43:09.925Z,128512
2016-11-20T13:43:27.097Z,128192
2016-11-20T13:43:44.291Z,128352
2016-11-20T13:44:01.485Z,127776
2016-11-20T13:44:18.914Z,126592
2016-11-20T13:44:36.121Z,126784
2016-11-20T13:44:53.317Z,127584
2016-11-20T13:45:10.513Z,127488
2016-11-20T13:45:27.694Z,126720
2016-11-20T13:45:44.846Z,125792
2016-11-20T13:46:02.643Z,124512
2016-11-20T13:46:19.824Z,126080
2016-11-20T13:46:37.020Z,128864
2016-11-20T13:46:54.203Z,128320
2016-11-20T13:47:11.396Z,126144
2016-11-20T13:47:28.563Z,124320
2016-11-20T13:47:45.752Z,123872
2016-11-20T13:48:02.934Z,124832
2016-11-20T13:48:20.197Z,124832
2016-11-20T13:48:37.475Z,123584
2016-11-20T13:48:54.655Z,123872
2016-11-20T13:49:12.072Z,125280
2016-11-20T13:49:29.351Z,126016
2016-11-20T13:49:46.555Z,126112
2016-11-20T13:50:03.720Z,126848
2016-11-20T13:50:20.926Z,126784
2016-11-20T13:50:38.091Z,127232
2016-11-20T13:50:55.330Z,127744
2016-11-20T13:51:12.566Z,128736
2016-11-20T13:51:29.762Z,129216
2016-11-20T13:51:46.959Z,129952
2016-11-20T13:52:04.146Z,129632
2016-11-20T13:52:21.368Z,129600
2016-11-20T13:52:38.531Z,130432
2016-11-20T13:52:55.783Z,130368
2016-11-20T13:53:12.962Z,128768
2016-11-20T13:53:30.185Z,127104
2016-11-20T13:53:47.366Z,127776
2016-11-20T13:54:04.557Z,128608
2016-11-20T13:54:21.840Z,128192
2016-11-20T13:54:39.015Z,126496
2016-11-20T13:54:56.209Z,126400
2016-11-20T13:55:13.387Z,127744
2016-11-20T13:55:30.667Z,129216
2016-11-20T13:55:47.852Z,130144
2016-11-20T13:56:05.054Z,130464
2016-11-20T13:56:22.218Z,129664
2016-11-20T13:56:39.395Z,128064
2016-11-20T13:56:57.125Z,127584
2016-11-20T13:57:14.343Z,126944
2016-11-20T13:57:31.509Z,127040
2016-11-20T13:57:48.684Z,127264
2016-11-20T13:58:05.969Z,128608
2016-11-20T13:58:23.138Z,129536
2016-11-20T13:58:40.322Z,130752
2016-11-20T13:58:57.481Z,132256
2016-11-20T13:59:14.773Z,134432
2016-11-20T13:59:31.966Z,135936
2016-11-20T13:59:49.143Z,136928
2016-11-20T14:00:06.333Z,137024
2016-11-20T14:00:23.527Z,137184
2016-11-20T14:00:40.742Z,136160
2016-11-20T14:00:57.937Z,135744
2016-11-20T14:01:15.137Z,134240
2016-11-20T14:01:32.317Z,132512
2016-11-20T14:01:49.531Z,129568
2016-11-20T14:02:06.736Z,127584
2016-11-20T14:02:23.910Z,126528
2016-11-20T14:02:41.142Z,126368
2016-11-20T14:02:58.344Z,125536
2016-11-20T14:03:15.539Z,123872
2016-11-20T14:03:32.730Z,124672
2016-11-20T14:03:49.928Z,123648
2016-11-20T14:04:07.129Z,123680
2016-11-20T14:04:24.354Z,122272
2016-11-20T14:04:41.531Z,121536
2016-11-20T14:04:58.704Z,122432
2016-11-20T14:05:16.470Z,121120
2016-11-20T14:05:33.672Z,121536
2016-11-20T14:05:50.845Z,121568
2016-11-20T14:06:08.047Z,120384
2016-11-20T14:06:25.227Z,121024
2016-11-20T14:06:42.415Z,122080
2016-11-20T14:06:59.595Z,121696
2016-11-20T14:07:16.840Z,120992
2016-11-20T14:07:34.028Z,120544
2016-11-20T14:07:51.200Z,121824
2016-11-20T14:08:08.425Z,122976
2016-11-20T14:08:25.601Z,123008
2016-11-20T14:08:42.795Z,122336
2016-11-20T14:08:59.999Z,122720
2016-11-20T14:09:17.193Z,123712
2016-11-20T14:09:34.381Z,124000
2016-11-20T14:09:51.566Z,123904
2016-11-20T14:10:08.751Z,123840
2016-11-20T14:10:25.947Z,123936
2016-11-20T14:10:43.130Z,124288
2016-11-20T14:11:00.340Z,118304
2016-11-20T14:11:17.527Z,117728
2016-11-20T14:11:34.705Z,120992
2016-11-20T14:11:51.928Z,123424
2016-11-20T14:12:23.528Z,122656
2016-11-20T14:12:40.693Z,123296
2016-11-20T14:12:57.869Z,122432
2016-11-20T14:13:15.666Z,121152
2016-11-20T14:13:32.859Z,120672
2016-11-20T14:13:50.067Z,119392
2016-11-20T14:14:07.244Z,118144
2016-11-20T14:14:24.431Z,116800
2016-11-20T14:14:41.594Z,116704
2016-11-20T14:14:58.803Z,116800
2016-11-20T14:15:15.977Z,117536
2016-11-20T14:15:33.137Z,119584
2016-11-20T14:15:50.318Z,121856
2016-11-20T14:16:07.502Z,123456
2016-11-20T14:16:24.719Z,124224
2016-11-20T14:16:41.900Z,123968
2016-11-20T14:16:59.084Z,123424
2016-11-20T14:17:16.250Z,124416
2016-11-20T14:17:33.433Z,124128
2016-11-20T14:17:50.589Z,123328
2016-11-20T14:18:07.797Z,122304
2016-11-20T14:18:24.972Z,122688
2016-11-20T14:18:42.171Z,123072
2016-11-20T14:18:59.362Z,124512
2016-11-20T14:19:16.548Z,125408
2016-11-20T14:19:33.733Z,126560
2016-11-20T14:19:50.926Z,127744
2016-11-20T14:20:08.140Z,127392
2016-11-20T14:20:25.332Z,127488
2016-11-20T14:20:43.074Z,126592
2016-11-20T14:21:00.238Z,125536
2016-11-20T14:21:17.433Z,122400
2016-11-20T14:21:34.656Z,120448
2016-11-20T14:21:51.842Z,118944
2016-11-20T14:22:09.044Z,117856
2016-11-20T14:22:26.222Z,117920
2016-11-20T14:22:43.388Z,117760
2016-11-20T14:23:00.563Z,116480
2016-11-20T14:23:17.752Z,115232
2016-11-20T14:23:34.926Z,117184
2016-11-20T14:23:52.108Z,117760
2016-11-20T14:24:09.306Z,117472
2016-11-20T14:24:26.482Z,119616
2016-11-20T14:24:43.660Z,120192
2016-11-20T14:25:00.854Z,120800
2016-11-20T14:25:18.043Z,120480
2016-11-20T14:25:35.229Z,119936
2016-11-20T14:25:52.415Z,119584
2016-11-20T14:26:10.155Z,119296
2016-11-20T14:26:27.344Z,120512
2016-11-20T14:26:44.528Z,120288
2016-11-20T14:27:01.935Z,117120
2016-11-20T14:27:19.120Z,102112
2016-11-20T14:27:36.494Z,119136
2016-11-20T14:27:53.735Z,120224
2016-11-20T14:28:11.944Z,120064
2016-11-20T14:28:29.150Z,119424
2016-11-20T14:28:46.339Z,119616
2016-11-20T14:29:03.537Z,118912
2016-11-20T14:29:20.716Z,117184
2016-11-20T14:29:37.930Z,115328
2016-11-20T14:29:55.110Z,113664
2016-11-20T14:30:12.301Z,112352
2016-11-20T14:30:29.507Z,109504
2016-11-20T14:30:46.691Z,107520
2016-11-20T14:31:03.882Z,105792
2016-11-20T14:31:21.064Z,103360
2016-11-20T14:31:38.283Z,100672
2016-11-20T14:31:55.457Z,99744
2016-11-20T14:32:12.640Z,100896
2016-11-20T14:32:29.843Z,99744
2016-11-20T14:32:47.010Z,100096
2016-11-20T14:33:04.200Z,100064
2016-11-20T14:33:21.382Z,102176
2016-11-20T14:33:38.569Z,102048
2016-11-20T14:33:55.744Z,102816
2016-11-20T14:34:12.954Z,106528
2016-11-20T14:34:30.151Z,112288
2016-11-20T14:34:47.329Z,114656
2016-11-20T14:35:04.515Z,116224
2016-11-20T14:35:21.693Z,118688
2016-11-20T14:35:38.870Z,122048
2016-11-20T14:35:56.634Z,123808
2016-11-20T14:36:13.781Z,123424
2016-11-20T14:36:30.975Z,122976
2016-11-20T14:36:48.177Z,122880
2016-11-20T14:37:05.374Z,122464
2016-11-20T14:37:22.551Z,123136
2016-11-20T14:37:39.808Z,122592
2016-11-20T14:37:56.989Z,122016
2016-11-20T14:38:14.156Z,122688
2016-11-20T14:38:31.357Z,122080
2016-11-20T14:38:48.548Z,121920
2016-11-20T14:39:05.730Z,122816
2016-11-20T14:39:22.907Z,123424
2016-11-20T14:39:40.646Z,125536
2016-11-20T14:39:57.816Z,126464
2016-11-20T14:40:15.005Z,127296
2016-11-20T14:40:32.172Z,128352
2016-11-20T14:40:49.357Z,129088
2016-11-20T14:41:06.547Z,129536
2016-11-20T14:41:23.741Z,129984
2016-11-20T14:41:40.929Z,130400
2016-11-20T14:41:58.104Z,130400
2016-11-20T14:42:15.296Z,130048
2016-11-20T14:42:32.484Z,129344
2016-11-20T14:42:49.676Z,129344
2016-11-20T14:43:06.857Z,129472
2016-11-20T14:43:24.051Z,128928
2016-11-20T14:43:41.280Z,127936
2016-11-20T14:43:58.451Z,127392
2016-11-20T14:44:15.635Z,127904
2016-11-20T14:44:32.812Z,128960
2016-11-20T14:44:50.001Z,128384
2016-11-20T14:45:07.182Z,128704
2016-11-20T14:45:24.386Z,128160
2016-11-20T14:45:41.583Z,127232
2016-11-20T14:45:58.776Z,126080
2016-11-20T14:46:16.053Z,124864
2016-11-20T14:46:33.243Z,124192
2016-11-20T14:46:50.456Z,123904
2016-11-20T14:47:07.663Z,123424
2016-11-20T14:47:24.845Z,125408
2016-11-20T14:47:42.081Z,125952
2016-11-20T14:47:59.318Z,126048
2016-11-20T14:48:16.466Z,126048
2016-11-20T14:48:33.695Z,127360
2016-11-20T14:48:50.864Z,127808
2016-11-20T14:49:08.114Z,128032
2016-11-20T14:49:25.291Z,127232
2016-11-20T14:49:42.479Z,126336
2016-11-20T14:49:59.713Z,125504
2016-11-20T14:50:16.949Z,125088
2016-11-20T14:50:34.168Z,125248
2016-11-20T14:50:51.394Z,125216
2016-11-20T14:51:08.592Z,124032
2016-11-20T14:51:25.831Z,123648
2016-11-20T14:51:42.997Z,123264
2016-11-20T14:52:00.179Z,122208
2016-11-20T14:52:17.365Z,122592
2016-11-20T14:52:34.586Z,123104
2016-11-20T14:52:51.767Z,122912
2016-11-20T14:53:08.984Z,124128
2016-11-20T14:53:26.170Z,125632
2016-11-20T14:53:43.363Z,127520
2016-11-20T14:54:00.595Z,128640
2016-11-20T14:54:17.849Z,133408
2016-11-20T14:54:35.048Z,134400
2016-11-20T14:54:52.217Z,133216
2016-11-20T14:55:09.401Z,133152
2016-11-20T14:55:26.587Z,133248
2016-11-20T14:55:43.770Z,131040
2016-11-20T14:56:00.984Z,127392
2016-11-20T14:56:18.775Z,123904
2016-11-20T14:56:35.979Z,121152
2016-11-20T14:56:53.162Z,117280
2016-11-20T14:57:10.351Z,112864
2016-11-20T14:57:27.562Z,111200
2016-11-20T14:57:44.730Z,108992
2016-11-20T14:58:01.907Z,107808
2016-11-20T14:58:19.088Z,107360
2016-11-20T14:58:36.271Z,108672
2016-11-20T14:58:54.036Z,111296
2016-11-20T14:59:11.183Z,111936
2016-11-20T14:59:28.422Z,113280
2016-11-20T14:59:45.634Z,116608
2016-11-20T15:00:02.810Z,120256
2016-11-20T15:00:20.015Z,122592
2016-11-20T15:00:37.210Z,124384
2016-11-20T15:00:54.390Z,125408
2016-11-20T15:01:11.573Z,125312
2016-11-20T15:01:28.782Z,126784
2016-11-20T15:01:45.978Z,128480
2016-11-20T15:02:03.174Z,130080
2016-11-20T15:02:20.352Z,132288
2016-11-20T15:02:37.534Z,133376
2016-11-20T15:02:54.714Z,133760
2016-11-20T15:03:11.927Z,133760
2016-11-20T15:03:29.102Z,134784
2016-11-20T15:03:46.301Z,136064
2016-11-20T15:04:03.499Z,134848
2016-11-20T15:04:20.675Z,134368
2016-11-20T15:04:37.856Z,134432
2016-11-20T15:04:55.040Z,132864
2016-11-20T15:05:12.240Z,131584
2016-11-20T15:05:29.425Z,130624
2016-11-20T15:05:46.593Z,130080
2016-11-20T15:06:03.774Z,129472
2016-11-20T15:06:20.972Z,129472
2016-11-20T15:06:38.156Z,129280
2016-11-20T15:06:55.553Z,130048
2016-11-20T15:07:12.722Z,128864
2016-11-20T15:07:29.910Z,127840
2016-11-20T15:07:47.085Z,128800
2016-11-20T15:08:04.250Z,130976
2016-11-20T15:08:21.414Z,131200
2016-11-20T15:08:38.624Z,130560
2016-11-20T15:08:55.859Z,130560
2016-11-20T15:09:13.602Z,130688
2016-11-20T15:09:30.781Z,129696
2016-11-20T15:09:47.978Z,128864
2016-11-20T15:10:05.173Z,128064
2016-11-20T15:10:22.341Z,128032
2016-11-20T15:10:39.552Z,127296
2016-11-20T15:10:56.749Z,126976
2016-11-20T15:11:13.952Z,129312
2016-11-20T15:11:31.141Z,130976
2016-11-20T15:11:48.361Z,130976
2016-11-20T15:12:05.574Z,133312
2016-11-20T15:12:22.778Z,136640
2016-11-20T15:12:39.968Z,138240
2016-11-20T15:12:57.139Z,138912
2016-11-20T15:13:14.307Z,138240
2016-11-20T15:13:31.471Z,137984
2016-11-20T15:13:48.682Z,138656
2016-11-20T15:14:05.883Z,138144
2016-11-20T15:14:23.073Z,134496
2016-11-20T15:14:40.290Z,130048
2016-11-20T15:14:57.488Z,129504
2016-11-20T15:15:14.681Z,128224
2016-11-20T15:15:31.903Z,126720
2016-11-20T15:15:49.078Z,124896
2016-11-20T15:16:06.270Z,124832
2016-11-20T15:16:23.471Z,123872
2016-11-20T15:16:40.639Z,124480
2016-11-20T15:16:57.825Z,127584
2016-11-20T15:17:14.996Z,130176
2016-11-20T15:17:32.189Z,133440
2016-11-20T15:17:49.367Z,137056
2016-11-20T15:18:06.700Z,137728
2016-11-20T15:18:23.893Z,137504
2016-11-20T15:18:41.110Z,142656
2016-11-20T15:18:58.336Z,144224
2016-11-20T15:19:15.523Z,124416
2016-11-20T15:19:32.705Z,147360
2016-11-20T15:19:49.901Z,149184
2016-11-20T15:20:07.092Z,149344
2016-11-20T15:20:24.292Z,150016
2016-11-20T15:20:41.500Z,150656
2016-11-20T15:20:58.666Z,149280
2016-11-20T15:21:15.844Z,147648
2016-11-20T15:21:33.601Z,147072
2016-11-20T15:21:50.920Z,148288
2016-11-20T15:22:08.115Z,149376
2016-11-20T15:22:25.332Z,150720
2016-11-20T15:22:42.548Z,150720
2016-11-20T15:22:59.726Z,148768
2016-11-20T15:23:16.937Z,145792
2016-11-20T15:23:34.147Z,134496
2016-11-20T15:23:51.332Z,94528
2016-11-20T15:24:08.538Z,39424
2016-11-20T15:24:25.730Z,63776
2016-11-20T15:24:42.957Z,115968
2016-11-20T15:25:00.153Z,128224
2016-11-20T15:25:17.343Z,148064
2016-11-20T15:25:34.556Z,143392
2016-11-20T15:25:51.747Z,137472
2016-11-20T15:26:08.933Z,135168
2016-11-20T15:26:26.117Z,122080
2016-11-20T15:26:43.266Z,112192
2016-11-20T15:27:00.448Z,110240
2016-11-20T15:27:18.185Z,131488
2016-11-20T15:27:35.378Z,130720
2016-11-20T15:27:52.558Z,130912
2016-11-20T15:28:09.719Z,130912
2016-11-20T15:28:26.917Z,131584
2016-11-20T15:28:44.109Z,129440
2016-11-20T15:29:01.298Z,97536
2016-11-20T15:29:19.066Z,127136
2016-11-20T15:29:36.249Z,46880
2016-11-20T15:29:53.416Z,57856
2016-11-20T15:30:10.594Z,43968
2016-11-20T15:30:27.774Z,68224
2016-11-20T15:30:44.978Z,33472
2016-11-20T15:31:02.184Z,33056
2016-11-20T15:31:19.365Z,68480
2016-11-20T15:31:36.567Z,87008
2016-11-20T15:31:53.733Z,39072
2016-11-20T15:32:10.914Z,94656
2016-11-20T15:32:28.091Z,126560
2016-11-20T15:32:45.258Z,125312
2016-11-20T15:33:02.459Z,123328
2016-11-20T15:33:19.641Z,120736
2016-11-20T15:33:36.871Z,117088
2016-11-20T15:33:54.047Z,115808
2016-11-20T15:34:11.223Z,115584
2016-11-20T15:34:28.406Z,115936
2016-11-20T15:34:45.598Z,111808
2016-11-20T15:35:03.350Z,108768
2016-11-20T15:35:20.556Z,107488
2016-11-20T15:35:37.724Z,105248
2016-11-20T15:35:54.919Z,103552
2016-11-20T15:36:12.102Z,101216
2016-11-20T15:36:29.266Z,100576
2016-11-20T15:36:46.442Z,101600
2016-11-20T15:37:03.618Z,101312
2016-11-20T15:37:20.804Z,101120
2016-11-20T15:37:37.990Z,101920
2016-11-20T15:37:55.187Z,101024
2016-11-20T15:38:12.368Z,101760
2016-11-20T15:38:29.546Z,101568
2016-11-20T15:38:46.742Z,103840
2016-11-20T15:39:03.932Z,105120
2016-11-20T15:39:21.114Z,105920
2016-11-20T15:39:38.307Z,106336
2016-11-20T15:39:55.487Z,107360
2016-11-20T15:40:12.663Z,107296
2016-11-20T15:40:29.876Z,107008
2016-11-20T15:40:47.058Z,108064
2016-11-20T15:41:04.256Z,102432
2016-11-20T15:41:21.461Z,106432
2016-11-20T15:41:38.652Z,104352
2016-11-20T15:41:55.851Z,102624
2016-11-20T15:42:13.053Z,100416
2016-11-20T15:42:30.214Z,103072
2016-11-20T15:42:47.386Z,102496
2016-11-20T15:43:04.551Z,100096
2016-11-20T15:43:21.744Z,100544
2016-11-20T15:43:38.952Z,101472
2016-11-20T15:43:56.133Z,99264
2016-11-20T15:44:13.894Z,98752
2016-11-20T15:44:31.096Z,98464
2016-11-20T15:44:48.296Z,99872
2016-11-20T15:45:05.494Z,100960
2016-11-20T15:45:22.661Z,101312
2016-11-20T15:45:39.837Z,101888
2016-11-20T15:45:57.053Z,102752
2016-11-20T15:46:14.222Z,102432
2016-11-20T15:46:31.403Z,103776
2016-11-20T15:46:48.702Z,103296
2016-11-20T15:47:05.890Z,103808
2016-11-20T15:47:23.112Z,98144
2016-11-20T15:47:40.847Z,111648
2016-11-20T15:47:58.021Z,113056
2016-11-20T15:48:15.195Z,113856
2016-11-20T15:48:32.373Z,112800
2016-11-20T15:48:49.527Z,110880
2016-11-20T15:49:06.715Z,111328
2016-11-20T15:49:23.894Z,110496
2016-11-20T15:49:41.136Z,113312
2016-11-20T15:49:58.322Z,112960
2016-11-20T15:50:15.505Z,110048
2016-11-20T15:50:32.702Z,116992
2016-11-20T15:50:49.947Z,119520
2016-11-20T15:51:07.235Z,122080
2016-11-20T15:51:24.699Z,122592
2016-11-20T15:51:41.901Z,123488
2016-11-20T15:51:59.130Z,125120
2016-11-20T15:52:16.324Z,126752
2016-11-20T15:52:33.532Z,127392
2016-11-20T15:52:50.731Z,128640
2016-11-20T15:53:07.926Z,129536
2016-11-20T15:53:25.099Z,131520
2016-11-20T15:53:42.329Z,132704
2016-11-20T15:53:59.502Z,132800
2016-11-20T15:54:16.701Z,130528
2016-11-20T15:54:33.888Z,131712
2016-11-20T15:54:51.085Z,131712
2016-11-20T15:55:08.291Z,127360
2016-11-20T15:55:25.481Z,122848
2016-11-20T15:55:43.298Z,117888
2016-11-20T15:56:00.469Z,115776
2016-11-20T15:56:17.677Z,113888
2016-11-20T15:56:34.868Z,111552
2016-11-20T15:56:52.081Z,109984
2016-11-20T15:57:09.308Z,110912
2016-11-20T15:57:26.499Z,112032
2016-11-20T15:57:43.726Z,112768
2016-11-20T15:58:00.934Z,113472
2016-11-20T15:58:18.156Z,114848
2016-11-20T15:58:35.326Z,117728
2016-11-20T15:58:52.574Z,118304
2016-11-20T15:59:09.772Z,118976
2016-11-20T15:59:26.999Z,118560
2016-11-20T15:59:44.168Z,119392
2016-11-20T16:00:01.388Z,119552
2016-11-20T16:00:19.106Z,120384
2016-11-20T16:00:36.342Z,119232
2016-11-20T16:00:53.556Z,118400
2016-11-20T16:01:10.792Z,118496
2016-11-20T16:01:27.988Z,118464
2016-11-20T16:01:45.169Z,119648
2016-11-20T16:02:02.359Z,119744
2016-11-20T16:02:19.524Z,120512
2016-11-20T16:02:36.703Z,120640
2016-11-20T16:02:53.891Z,120672
2016-11-20T16:03:11.084Z,119680
2016-11-20T16:03:28.280Z,119392
2016-11-20T16:03:45.990Z,119104
2016-11-20T16:04:03.195Z,118432
2016-11-20T16:04:20.385Z,117984
2016-11-20T16:04:37.570Z,116384
2016-11-20T16:04:54.760Z,116064
2016-11-20T16:05:11.947Z,117088
2016-11-20T16:05:29.119Z,117472
2016-11-20T16:05:46.291Z,118432
2016-11-20T16:06:03.484Z,107008
2016-11-20T16:06:21.047Z,115904
2016-11-20T16:06:38.208Z,111904
2016-11-20T16:06:55.393Z,112000
2016-11-20T16:07:12.553Z,108960
2016-11-20T16:07:29.723Z,108320
2016-11-20T16:07:46.926Z,107008
2016-11-20T16:08:04.116Z,105504
2016-11-20T16:08:21.314Z,103456
2016-11-20T16:08:38.505Z,101056
2016-11-20T16:08:55.685Z,100576
2016-11-20T16:09:12.904Z,99744
2016-11-20T16:09:30.105Z,99680
2016-11-20T16:09:47.288Z,101152
2016-11-20T16:10:04.468Z,102304
2016-11-20T16:10:21.676Z,102688
2016-11-20T16:10:38.826Z,102944
2016-11-20T16:10:56.017Z,101696
2016-11-20T16:11:13.188Z,104768
2016-11-20T16:11:30.373Z,105728
2016-11-20T16:11:47.543Z,103936
2016-11-20T16:12:04.727Z,100704
2016-11-20T16:12:21.926Z,97920
2016-11-20T16:12:39.155Z,94848
2016-11-20T16:12:56.362Z,94304
2016-11-20T16:13:13.558Z,93120
2016-11-20T16:13:30.773Z,93536
2016-11-20T16:13:47.988Z,94368
2016-11-20T16:14:05.205Z,87680
2016-11-20T16:14:22.404Z,55200
2016-11-20T16:14:39.568Z,91360
2016-11-20T16:14:56.746Z,90976
2016-11-20T16:15:13.929Z,86464
2016-11-20T16:15:31.125Z,53696
2016-11-20T16:15:48.349Z,43520
2016-11-20T16:16:05.566Z,31200
2016-11-20T16:16:22.765Z,80000
2016-11-20T16:16:39.958Z,77792
2016-11-20T16:16:57.160Z,76416
2016-11-20T16:17:14.366Z,75136
2016-11-20T16:17:31.552Z,74464
2016-11-20T16:17:48.738Z,74208
2016-11-20T16:18:05.967Z,75776
2016-11-20T16:18:23.701Z,78144
2016-11-20T16:18:40.906Z,80704
2016-11-20T16:18:58.114Z,82464
2016-11-20T16:19:15.305Z,84352
2016-11-20T16:19:33.059Z,86496
2016-11-20T16:19:50.244Z,86752
2016-11-20T16:20:07.435Z,88640
2016-11-20T16:20:24.642Z,89792
2016-11-20T16:20:41.839Z,91296
2016-11-20T16:20:59.017Z,91744
2016-11-20T16:21:16.220Z,92992
2016-11-20T16:21:33.392Z,92480
2016-11-20T16:21:50.870Z,92672
2016-11-20T16:22:08.072Z,93120
2016-11-20T16:22:25.266Z,93536
2016-11-20T16:22:42.428Z,94368
2016-11-20T16:22:59.605Z,94432
2016-11-20T16:23:16.804Z,94368
2016-11-20T16:23:33.988Z,95168
2016-11-20T16:23:51.193Z,96256
2016-11-20T16:24:08.958Z,95232
2016-11-20T16:24:26.133Z,93440
2016-11-20T16:24:43.309Z,92640
2016-11-20T16:25:00.484Z,91264
2016-11-20T16:25:17.848Z,87808
2016-11-20T16:25:35.016Z,85088
2016-11-20T16:25:52.188Z,85568
2016-11-20T16:26:09.381Z,87296
2016-11-20T16:26:26.554Z,89920
2016-11-20T16:26:43.743Z,93280
2016-11-20T16:27:00.926Z,98432
2016-11-20T16:27:18.100Z,104288
2016-11-20T16:27:35.282Z,110976
2016-11-20T16:27:52.481Z,112288
2016-11-20T16:28:09.658Z,112384
2016-11-20T16:28:26.881Z,113312
2016-11-20T16:28:44.066Z,113184
2016-11-20T16:29:01.816Z,110432
2016-11-20T16:29:19.017Z,108672
2016-11-20T16:29:36.211Z,107328
2016-11-20T16:29:53.391Z,105280
2016-11-20T16:30:10.570Z,104288
2016-11-20T16:30:27.761Z,101344
2016-11-20T16:30:44.981Z,98144
2016-11-20T16:31:02.162Z,95808
2016-11-20T16:31:19.351Z,94368
2016-11-20T16:31:36.521Z,91648
2016-11-20T16:31:53.705Z,90656
2016-11-20T16:32:10.873Z,90080
2016-11-20T16:32:28.067Z,89248
2016-11-20T16:32:45.251Z,87296
2016-11-20T16:33:02.404Z,86848
2016-11-20T16:33:19.589Z,87712
2016-11-20T16:33:36.762Z,87424
2016-11-20T16:33:53.983Z,87712
2016-11-20T16:34:11.185Z,87264
2016-11-20T16:34:28.369Z,87200
2016-11-20T16:34:45.541Z,86432
2016-11-20T16:35:02.730Z,85152
2016-11-20T16:35:19.919Z,83936
2016-11-20T16:35:37.124Z,83040
2016-11-20T16:35:54.298Z,81824
2016-11-20T16:36:11.463Z,80256
2016-11-20T16:36:28.635Z,79456
2016-11-20T16:36:45.803Z,79040
2016-11-20T16:37:02.963Z,79712
2016-11-20T16:37:20.549Z,80192
2016-11-20T16:37:37.746Z,80640
2016-11-20T16:37:55.542Z,81664
2016-11-20T16:38:13.291Z,82880
2016-11-20T16:38:30.484Z,83264
2016-11-20T16:38:47.669Z,82016
2016-11-20T16:39:04.873Z,81152
2016-11-20T16:39:22.039Z,80576
2016-11-20T16:39:39.230Z,79936
2016-11-20T16:39:56.413Z,79392
2016-11-20T16:40:13.584Z,79488
2016-11-20T16:40:30.759Z,80704
2016-11-20T16:40:47.932Z,82368
2016-11-20T16:41:05.110Z,83936
2016-11-20T16:41:22.305Z,86080
2016-11-20T16:41:39.497Z,88384
2016-11-20T16:41:56.706Z,89856
2016-11-20T16:42:13.885Z,91296
2016-11-20T16:42:31.100Z,92256
2016-11-20T16:42:48.292Z,92416
2016-11-20T16:43:05.501Z,91232
2016-11-20T16:43:22.682Z,91168
2016-11-20T16:43:39.898Z,91488
2016-11-20T16:43:57.120Z,92000
2016-11-20T16:44:14.296Z,92000
2016-11-20T16:44:31.485Z,93376
2016-11-20T16:44:48.663Z,95104
2016-11-20T16:45:05.847Z,95968
2016-11-20T16:45:23.030Z,96320
2016-11-20T16:45:40.233Z,96576
2016-11-20T16:45:57.403Z,96448
2016-11-20T16:46:14.590Z,97504
2016-11-20T16:46:31.768Z,96960
2016-11-20T16:46:49.121Z,95904
2016-11-20T16:47:06.301Z,95520
2016-11-20T16:47:23.488Z,95200
2016-11-20T16:47:40.676Z,93472
2016-11-20T16:47:57.863Z,91616
2016-11-20T16:48:15.075Z,90816
2016-11-20T16:48:32.266Z,89376
2016-11-20T16:48:49.446Z,88320
2016-11-20T16:49:06.632Z,89056
2016-11-20T16:49:23.831Z,89728
2016-11-20T16:49:41.062Z,90048
2016-11-20T16:49:58.258Z,90848
2016-11-20T16:50:15.438Z,92160
2016-11-20T16:50:32.610Z,94112
2016-11-20T16:50:49.896Z,94080
2016-11-20T16:51:07.104Z,95168
2016-11-20T16:51:24.337Z,95680
2016-11-20T16:51:41.526Z,95296
2016-11-20T16:51:58.706Z,94560
2016-11-20T16:52:15.915Z,94944
2016-11-20T16:52:33.087Z,94720
2016-11-20T16:52:50.272Z,93728
2016-11-20T16:53:07.429Z,94528
2016-11-20T16:53:24.601Z,95072
2016-11-20T16:53:41.777Z,95808
2016-11-20T16:53:58.972Z,95936
2016-11-20T16:54:16.146Z,96256
2016-11-20T16:54:33.365Z,96992
2016-11-20T16:54:50.570Z,96896
2016-11-20T16:55:07.745Z,96800
2016-11-20T16:55:24.945Z,97216
2016-11-20T16:55:42.161Z,97696
2016-11-20T16:55:59.380Z,97504
2016-11-20T16:56:16.557Z,98752
2016-11-20T16:56:33.791Z,98816
2016-11-20T16:56:51.075Z,98848
2016-11-20T16:57:08.270Z,99264
2016-11-20T16:57:25.505Z,98752
2016-11-20T16:57:42.700Z,96928
2016-11-20T16:57:59.874Z,95520
2016-11-20T16:58:17.060Z,94752
2016-11-20T16:58:34.234Z,93632
2016-11-20T16:58:51.455Z,92256
2016-11-20T16:59:08.646Z,93408
2016-11-20T16:59:25.926Z,92480
2016-11-20T16:59:43.112Z,91776
2016-11-20T17:00:00.303Z,92512
2016-11-20T17:00:17.471Z,93088
2016-11-20T17:00:34.649Z,94112
2016-11-20T17:00:51.851Z,95264
2016-11-20T17:01:09.022Z,96992
2016-11-20T17:01:26.212Z,97696
2016-11-20T17:01:43.395Z,98496
2016-11-20T17:02:00.583Z,99296
2016-11-20T17:02:18.346Z,99040
2016-11-20T17:02:35.529Z,99040
2016-11-20T17:02:52.704Z,98784
2016-11-20T17:03:09.904Z,98112
2016-11-20T17:03:27.069Z,97952
2016-11-20T17:03:44.238Z,97792
2016-11-20T17:04:01.417Z,97216
2016-11-20T17:04:18.583Z,96512
2016-11-20T17:04:35.793Z,95904
2016-11-20T17:04:52.977Z,95168
2016-11-20T17:05:10.177Z,93952
2016-11-20T17:05:27.372Z,93184
2016-11-20T17:05:44.537Z,92576
2016-11-20T17:06:01.718Z,90848
2016-11-20T17:06:18.912Z,90656
2016-11-20T17:06:36.091Z,90720
2016-11-20T17:06:53.258Z,90944
2016-11-20T17:07:10.442Z,91552
2016-11-20T17:07:27.607Z,91616
2016-11-20T17:07:44.795Z,92352
2016-11-20T17:08:01.991Z,92096
2016-11-20T17:08:19.163Z,92832
2016-11-20T17:08:36.363Z,92672
2016-11-20T17:08:53.554Z,93152
2016-11-20T17:09:10.735Z,93344
2016-11-20T17:09:27.912Z,92704
2016-11-20T17:09:45.085Z,92896
2016-11-20T17:10:02.257Z,92288
2016-11-20T17:10:19.438Z,91488
2016-11-20T17:10:36.615Z,90720
2016-11-20T17:10:53.831Z,89920
2016-11-20T17:11:11.039Z,89376
2016-11-20T17:11:28.231Z,89856
2016-11-20T17:11:45.408Z,90432
2016-11-20T17:12:02.593Z,92288
2016-11-20T17:12:19.802Z,93536
2016-11-20T17:12:36.999Z,94368
2016-11-20T17:12:54.226Z,95360
2016-11-20T17:13:11.458Z,95328
2016-11-20T17:13:28.658Z,93920
2016-11-20T17:13:45.844Z,92640
2016-11-20T17:14:03.022Z,91360